Saturday, December 15, 2018, 10:32 PM EST
Back to Local

KMMK, Meriden Markham Municipal Airport

Location: Meriden, CT, United States Lat: 41.517
Local Time: 10:32 PM EST ( 3:32 GMT) Lon: -72.833
Time Zone: US/Eastern Elev: 101 ft

Show me the last for .
Show Decoded

2018-12-15 21:53 METAR KMMK 160253Z AUTO VRB05KT 10SM CLR 07/02 A3019 RMK AO2 SLP225 T00670017
                 53011 =
2018-12-15 20:53 METAR KMMK 160153Z AUTO 01006KT 10SM CLR 07/02 A3017 RMK AO2 SLP218 T00720022 =
2018-12-15 19:53 METAR KMMK 160053Z AUTO 02006KT 10SM CLR 08/02 A3017 RMK AO2 SLP218 T00830022 =
2018-12-15 18:53 METAR KMMK 152353Z AUTO 35005KT 10SM CLR 08/04 A3016 RMK AO2 SLP214 T00830039
                 10111 20083 53012 =
2018-12-15 17:53 METAR KMMK 152253Z AUTO 36006KT 10SM CLR 09/05 A3011 RMK AO2 SLP197 T00890050 =
2018-12-15 16:53 METAR KMMK 152153Z AUTO 36004KT 10SM CLR 09/06 A3011 RMK AO2 SLP198 T00890056 =
2018-12-15 15:53 METAR KMMK 152053Z AUTO 04006KT 10SM CLR 09/06 A3013 RMK AO2 SLP202 T00940061
                 53001 =
2018-12-15 14:53 METAR KMMK 151953Z AUTO 02006KT 10SM CLR 10/06 A3012 RMK AO2 SLP200 T01000061 =
2018-12-15 13:53 METAR KMMK 151853Z AUTO 01006KT 10SM CLR 11/06 A3012 RMK AO2 SLP200 T01060061 =
2018-12-15 12:53 METAR KMMK 151753Z AUTO 02004KT 10SM CLR 11/06 A3012 RMK AO2 SLP201 60001
                 T01060061 10111 20044 58016 =
2018-12-15 11:53 METAR KMMK 151653Z AUTO 33003KT 9SM OVC046 10/08 A3014 RMK AO2 SLP208 T01000083
                 =
2018-12-15 10:53 METAR KMMK 151553Z AUTO 00000KT 8SM FEW003 SCT046 OVC075 09/07 A3017 RMK AO2
                 SLP217 T00890072 =
2018-12-15 10:51 METAR KMMK 151551Z AUTO 00000KT 8SM FEW003 BKN046 OVC075 09/07 A3017 RMK AO2 =
2018-12-15 10:37 METAR KMMK 151537Z AUTO 00000KT 4SM BR BKN044 OVC075 08/08 A3018 RMK AO2
                 T00830078 =
2018-12-15 10:11 METAR KMMK 151511Z AUTO 00000KT 2SM BR OVC040 07/07 A3020 RMK AO2 T00720067 =
2018-12-15 09:53 METAR KMMK 151453Z AUTO 00000KT 1 1/2SM BR FEW015 OVC036 07/06 A3020 RMK AO2
                 RAB24E42 SLP227 P0000 60001 T00670061 50003 =
2018-12-15 09:39 METAR KMMK 151439Z AUTO 00000KT 1 1/4SM -RA BR SCT015 BKN021 OVC039 07/06 A3021
                 RMK AO2 RAB24 P0000 T00670061 =
2018-12-15 09:27 METAR KMMK 151427Z AUTO 00000KT 1/2SM -RA FG BKN015 OVC021 06/06 A3021 RMK AO2
                 RAB24 P0000 T00610056 =
2018-12-15 09:19 METAR KMMK 151419Z AUTO 00000KT 1/4SM FG OVC015 06/06 A3021 RMK AO2 T00610056 =
2018-12-15 09:04 METAR KMMK 151404Z AUTO 00000KT 1/2SM FG OVC014 07/06 A3021 RMK AO2 T00670061 =
2018-12-15 08:53 METAR KMMK 151353Z AUTO 00000KT 1/4SM FG BKN013 OVC028 06/06 A3021 RMK AO2
                 RAB44E53 SLP230 P0001 T00610056 =
2018-12-15 08:31 METAR KMMK 151331Z AUTO 00000KT 1/4SM FG VV011 06/06 A3020 RMK AO2 T00560056 =
2018-12-15 07:53 METAR KMMK 151253Z AUTO 00000KT 1/4SM FG VV008 06/05 A3019 RMK AO2 SLP225
                 T00560050 =
2018-12-15 07:16 METAR KMMK 151216Z AUTO 00000KT 1/4SM FG VV008 05/04 A3019 RMK AO2 T00500044 =
2018-12-15 07:02 METAR KMMK 151202Z AUTO 00000KT 1/2SM FG VV009 04/04 A3019 RMK AO2 T00440044 =
2018-12-15 06:53 METAR KMMK 151153Z AUTO 00000KT 1/2SM FG VV010 06/05 A3019 RMK AO2 SLP225 60001
                 70001 T00560050 10061 20050 53003 =
2018-12-15 06:02 METAR KMMK 151102Z AUTO 00000KT 1/2SM FG VV012 05/04 A3019 RMK AO2 T00500044 =
2018-12-15 05:53 METAR KMMK 151053Z AUTO 00000KT 1/4SM FG VV012 05/05 A3019 RMK AO2 SLP224
                 T00500050 =
2018-12-15 05:40 METAR KMMK 151040Z AUTO 00000KT 1/2SM FG VV013 05/04 A3019 RMK AO2 T00500044 =
2018-12-15 05:24 METAR KMMK 151024Z AUTO 16003KT 1/4SM FG VV013 05/04 A3018 RMK AO2 T00500044 =
2018-12-15 04:53 METAR KMMK 150953Z AUTO 18003KT 1/2SM FG BKN014 OVC019 06/06 A3018 RMK AO2
                 SLP222 T00560056 =
2018-12-15 04:49 METAR KMMK 150949Z AUTO 00000KT 1/2SM FG BKN014 OVC019 06/05 A3018 RMK AO2 =
2018-12-15 03:53 METAR KMMK 150853Z AUTO 00000KT 1/2SM FG SCT015 OVC025 06/04 A3020 RMK AO2 RAE32
                 SLP226 P0000 60001 T00560044 58011 =
2018-12-15 03:43 METAR KMMK 150843Z AUTO 00000KT 1/2SM FG FEW008 BKN015 OVC025 05/04 A3020 RMK
                 AO2 RAE32 P0000 T00500044 =
2018-12-15 03:31 METAR KMMK 150831Z AUTO 00000KT 1/2SM -RA FG OVC013 06/04 A3020 RMK AO2 P0000
                 T00560044 =
2018-12-15 03:24 METAR KMMK 150824Z AUTO 00000KT 1/4SM -RA FG OVC013 05/04 A3020 RMK AO2 P0000
                 T00500044 =
2018-12-15 03:06 METAR KMMK 150806Z AUTO 15003KT 1/2SM -RA FG BKN010 OVC016 05/05 A3021 RMK AO2
                 P0000 T00500050 =
2018-12-15 02:53 METAR KMMK 150753Z AUTO 00000KT 1/2SM -RA FG VV008 06/05 A3022 RMK AO2 RAB16
                 SLP235 P0001 T00560050 =
2018-12-15 02:43 METAR KMMK 150743Z AUTO 00000KT 1/2SM -RA FG VV006 05/04 A3023 RMK AO2 RAB16
                 P0001 T00500044 =
2018-12-15 02:30 METAR KMMK 150730Z AUTO 00000KT 1/2SM -RA FG FEW003 OVC009 05/04 A3022 RMK AO2
                 RAB16 P0000 T00500044 =
2018-12-15 01:53 METAR KMMK 150653Z AUTO 00000KT 3/4SM BR SCT003 OVC012 06/05 A3023 RMK AO2
                 RAE10B36E46 SLP236 P0000 T00560050 =
2018-12-15 01:34 METAR KMMK 150634Z AUTO 00000KT 1 1/2SM BR OVC004 05/05 A3023 RMK AO2 RAE10
                 P0000 T00500050 =
2018-12-15 01:19 METAR KMMK 150619Z AUTO 00000KT 2SM BR OVC004 06/05 A3023 RMK AO2 RAE10 P0000
                 T00560050 =
2018-12-15 00:53 METAR KMMK 150553Z AUTO 16003KT 6SM -RA BR OVC004 06/04 A3023 RMK AO2 RAB43
                 SLP237 P0000 60000 T00560039 10067 20033 57019 =
2018-12-14 23:53 METAR KMMK 150453Z AUTO 14004KT 6SM BR OVC005 07/06 A3025 RMK AO2 SLP243
                 T00670056 400671044 =
2018-12-14 22:53 METAR KMMK 150353Z AUTO 16003KT 10SM OVC006 04/01 A3027 RMK AO2 SLP250 T00440011
                 =

Support USWX by starting your Amazon purchase here.